RWZ150 UWOO-UUBW
Flight info
| Callsign | RWZ150 |
|---|---|
| Flight time | N/A |
| Altitude | 36000 |
| Route | PIMAM5D PIMAM M162 PODUT T750 MOF T759 TIRET T784 OTKOL T787 URAGO URAGO2W |
| Aircraft | SU95/M-SDE3GILORVW/S |
Departure
| Time | N/A |
|---|---|
| Airport | Orenburg Central Airport (UWOO) |
Arrival
| Time | 2026-04-28 14:11 |
|---|---|
| Airport | Zhukovsky International Airport (UUBW) |
| Time | Latitude | Longitude | Altitude | Speed | Heading |
|---|---|---|---|---|---|
| 2026-04-28 13:58 | 55.56559 | 39.42492 | 10798 ft | 277 kts | 263° |
| 2026-04-28 13:58 | 55.56226 | 39.39217 | 10696 ft | 264 kts | 264° |
| 2026-04-28 13:58 | 55.55907 | 39.36074 | 10426 ft | 258 kts | 264° |
| 2026-04-28 13:59 | 55.55592 | 39.32953 | 10030 ft | 257 kts | 264° |
| 2026-04-28 13:59 | 55.55278 | 39.29857 | 9634 ft | 256 kts | 264° |
| 2026-04-28 13:59 | 55.54965 | 39.26788 | 9356 ft | 249 kts | 264° |
| 2026-04-28 13:59 | 55.54660 | 39.23817 | 9209 ft | 247 kts | 264° |
| 2026-04-28 14:00 | 55.54353 | 39.20818 | 9052 ft | 247 kts | 264° |
| 2026-04-28 14:00 | 55.54067 | 39.18026 | 8837 ft | 246 kts | 264° |
| 2026-04-28 14:00 | 55.53762 | 39.15072 | 8603 ft | 245 kts | 264° |
| 2026-04-28 14:00 | 55.53455 | 39.12103 | 8341 ft | 244 kts | 264° |
| 2026-04-28 14:01 | 55.53150 | 39.09161 | 8089 ft | 243 kts | 264° |
| 2026-04-28 14:01 | 55.52845 | 39.06232 | 7830 ft | 243 kts | 264° |
| 2026-04-28 14:01 | 55.52541 | 39.03308 | 7176 ft | 242 kts | 260° |
| 2026-04-28 14:01 | 55.52234 | 39.00282 | 6997 ft | 271 kts | 259° |
| 2026-04-28 14:02 | 55.51887 | 38.96934 | 6860 ft | 278 kts | 259° |
| 2026-04-28 14:02 | 55.51538 | 38.93602 | 6711 ft | 275 kts | 259° |
| 2026-04-28 14:02 | 55.51187 | 38.90280 | 6566 ft | 275 kts | 259° |
| 2026-04-28 14:02 | 55.50837 | 38.86970 | 6371 ft | 276 kts | 259° |
| 2026-04-28 14:03 | 55.50461 | 38.83643 | 6103 ft | 273 kts | 255° |
| 2026-04-28 14:03 | 55.49777 | 38.80509 | 5828 ft | 272 kts | 242° |
| 2026-04-28 14:03 | 55.48765 | 38.77706 | 5543 ft | 270 kts | 236° |
| 2026-04-28 14:03 | 55.47712 | 38.74970 | 5256 ft | 269 kts | 236° |
| 2026-04-28 14:04 | 55.46669 | 38.72230 | 4971 ft | 268 kts | 236° |
| 2026-04-28 14:04 | 55.45635 | 38.69507 | 4685 ft | 267 kts | 236° |
| 2026-04-28 14:04 | 55.44602 | 38.66790 | 4407 ft | 266 kts | 236° |
| 2026-04-28 14:04 | 55.43592 | 38.64136 | 4138 ft | 265 kts | 236° |
| 2026-04-28 14:05 | 55.42659 | 38.61686 | 3885 ft | 264 kts | 236° |
| 2026-04-28 14:05 | 55.41634 | 38.59003 | 3597 ft | 263 kts | 236° |
| 2026-04-28 14:05 | 55.40618 | 38.56347 | 3322 ft | 262 kts | 236° |
| 2026-04-28 14:05 | 55.39601 | 38.53687 | 3045 ft | 261 kts | 237° |
| 2026-04-28 14:06 | 55.38994 | 38.50724 | 2769 ft | 259 kts | 267° |
| 2026-04-28 14:06 | 55.39336 | 38.47617 | 2486 ft | 261 kts | 293° |
| 2026-04-28 14:06 | 55.40257 | 38.44911 | 2261 ft | 258 kts | 306° |
| 2026-04-28 14:06 | 55.41378 | 38.42493 | 2216 ft | 247 kts | 310° |
| 2026-04-28 14:07 | 55.42484 | 38.40315 | 2216 ft | 231 kts | 311° |
| 2026-04-28 14:07 | 55.43522 | 38.38265 | 2218 ft | 217 kts | 311° |
| 2026-04-28 14:07 | 55.44476 | 38.36380 | 2220 ft | 194 kts | 311° |
| 2026-04-28 14:07 | 55.45321 | 38.34710 | 2208 ft | 171 kts | 311° |
| 2026-04-28 14:08 | 55.46060 | 38.33249 | 2221 ft | 154 kts | 310° |
| 2026-04-28 14:08 | 55.46782 | 38.31820 | 2221 ft | 155 kts | 310° |
| 2026-04-28 14:08 | 55.47498 | 38.30404 | 2200 ft | 155 kts | 311° |
| 2026-04-28 14:08 | 55.47974 | 38.29461 | 2073 ft | 154 kts | 311° |
| 2026-04-28 14:09 | 55.48918 | 38.27592 | 1794 ft | 152 kts | 310° |
| 2026-04-28 14:09 | 55.49385 | 38.26666 | 1668 ft | 152 kts | 310° |
| 2026-04-28 14:09 | 55.50098 | 38.25255 | 1452 ft | 152 kts | 310° |
| 2026-04-28 14:09 | 55.50796 | 38.23871 | 1255 ft | 151 kts | 310° |
| 2026-04-28 14:10 | 55.51496 | 38.22486 | 1052 ft | 151 kts | 310° |
| 2026-04-28 14:10 | 55.52190 | 38.21107 | 849 ft | 150 kts | 310° |
| 2026-04-28 14:10 | 55.52885 | 38.19729 | 653 ft | 150 kts | 310° |
| 2026-04-28 14:10 | 55.53580 | 38.18365 | 459 ft | 149 kts | 311° |
| 2026-04-28 14:11 | 55.54249 | 38.17053 | 395 ft | 135 kts | 311° |
| 2026-04-28 14:11 | 55.54760 | 38.16022 | 394 ft | 85 kts | 312° |
| 2026-04-28 14:11 | 55.55041 | 38.15458 | 394 ft | 50 kts | 309° |
| 2026-04-28 14:11 | 55.55258 | 38.15028 | 394 ft | 44 kts | 312° |
| 2026-04-28 14:12 | 55.55450 | 38.14644 | 397 ft | 39 kts | 311° |
| 2026-04-28 14:12 | 55.55624 | 38.14295 | 392 ft | 37 kts | 310° |
| 2026-04-28 14:12 | 55.55791 | 38.13972 | 395 ft | 35 kts | 311° |
| 2026-04-28 14:12 | 55.55963 | 38.13624 | 394 ft | 38 kts | 310° |
| 2026-04-28 14:13 | 55.56123 | 38.13296 | 394 ft | 25 kts | 310° |
| 2026-04-28 14:13 | 55.56218 | 38.13047 | 395 ft | 24 kts | 275° |
| 2026-04-28 14:13 | 55.56138 | 38.12845 | 396 ft | 15 kts | 230° |
| 2026-04-28 14:13 | 55.56102 | 38.12751 | 396 ft | 1 kts | 257° |
| 2026-04-28 14:14 | 55.56103 | 38.12727 | 395 ft | 3 kts | 285° |
| 2026-04-28 14:14 | 55.56129 | 38.12659 | 394 ft | 9 kts | 310° |
| 2026-04-28 14:14 | 55.56167 | 38.12585 | 395 ft | 7 kts | 316° |
| 2026-04-28 14:14 | 55.56193 | 38.12539 | 395 ft | 4 kts | 314° |
| 2026-04-28 14:15 | 55.56209 | 38.12511 | 396 ft | 3 kts | 314° |
| 2026-04-28 14:15 | 55.56245 | 38.12439 | 394 ft | 9 kts | 309° |
| 2026-04-28 14:15 | 55.56281 | 38.12366 | 396 ft | 7 kts | 311° |
| 2026-04-28 14:15 | 55.56308 | 38.12312 | 395 ft | 7 kts | 310° |
| 2026-04-28 14:16 | 55.56372 | 38.12179 | 394 ft | 14 kts | 301° |
| 2026-04-28 14:16 | 55.56382 | 38.12107 | 396 ft | 3 kts | 239° |
| 2026-04-28 14:16 | 55.56377 | 38.12094 | 396 ft | 0 kts | 224° |
| 2026-04-28 14:16 | 55.56358 | 38.12064 | 396 ft | 4 kts | 222° |
| 2026-04-28 14:17 | 55.56342 | 38.12040 | 396 ft | 0 kts | 221° |